CST,Max TemperatureF,Mean TemperatureF,Min TemperatureF,Max Dew PointF,MeanDew PointF,Min DewpointF,Max Humidity, Mean Humidity, Min Humidity, Max Sea Level PressureIn, Mean Sea Level PressureIn, Min Sea Level PressureIn, Max VisibilityMiles, Mean VisibilityMiles, Min VisibilityMiles, Max Wind SpeedMPH, Mean Wind SpeedMPH, Max Gust SpeedMPH,PrecipitationIn, CloudCover, Events, WindDirDegrees
2013-1-1,-12,-18,-25,-24,-29,-38,59,51,34,30.04,30.00,29.93,15,14,10,15,7,,0.00,3,Snow,30
2013-1-2,-18,-22,-26,-31,-35,-38,58,51,32,29.92,29.79,29.60,15,11,3,13,9,17,0.01,6,Snow,285
2013-1-3,-20,-26,-29,-31,-37,-42,58,50,30,29.76,29.64,29.57,15,14,7,24,13,21,0.01,3,Snow,70
2013-1-4,-14,-22,-28,-27,-34,-40,53,48,31,29.78,29.70,29.45,15,12,2,28,19,33,0.00,3,Snow,343
2013-1-5,-18,-22,-25,-27,-33,-38,57,49,29,29.43,29.35,29.29,15,12,4,17,7,,0.00,2,Snow,38
2013-1-6,-20,-24,-27,-33,-37,-40,52,48,29,29.64,29.56,29.44,15,12,6,24,16,23,0.00,2,Snow,93
2013-1-7,-12,-20,-27,-30,-35,-38,52,46,27,29.74,29.71,29.65,15,15,15,21,15,,0.00,0,Snow,84
2013-1-8,-13,-20,-27,-31,-35,-40,57,46,25,29.70,29.69,29.67,15,15,15,20,11,,0.00,1,Snow,67
2013-1-9,-17,-24,-30,-29,-38,-42,57,49,31,29.70,29.66,29.56,15,15,12,21,6,,0.00,1,Snow,323
2013-1-10,-20,-26,-31,-33,-36,-38,52,49,31,29.69,29.60,29.54,15,15,8,20,15,,0.00,6,Snow,315
2013-1-11,-18,-22,-25,-31,-35,-38,57,49,31,29.96,29.83,29.70,15,14,10,18,8,,0.00,4,Snow,56
2013-1-12,-21,-26,-31,-35,-38,-44,52,47,29,30.26,30.13,29.98,15,12,8,23,17,,0.00,2,Snow,100
2013-1-13,-16,-23,-30,-31,-36,-42,52,46,25,30.26,30.21,30.09,15,11,6,26,23,,0.00,5,Snow,62
2013-1-14,-16,-18,-21,-31,-32,-35,53,46,27,30.08,30.00,29.96,15,14,9,24,22,,0.00,6,Snow,60
2013-1-15,-15,-21,-27,-31,-36,-42,53,45,27,29.96,29.90,29.84,15,15,15,30,22,36,0.00,1,Snow,45
2013-1-16,-25,-28,-32,-40,-43,-45,56,47,26,29.85,29.78,29.70,15,6,0,28,16,33,0.00,2,Snow,326
2013-1-17,-29,-30,-32,-42,-43,-44,56,49,29,29.71,29.68,29.65,15,6,2,25,20,26,0.00,6,Snow,324
2013-1-18,-30,-33,-36,-42,-44,-47,56,50,30,29.74,29.71,29.62,15,15,12,10,7,,0.00,1,Snow,322
2013-1-19,-17,-26,-35,-29,-35,-45,56,49,31,29.64,29.59,29.56,15,14,10,20,12,,0.00,5,Snow,325
2013-1-20,-4,-18,-26,-17,-33,-36,58,49,29,29.86,29.76,29.65,15,11,0,31,11,38,0.01,3,Snow,28
2013-1-21,3,-11,-25,-13,-17,-20,60,49,29,30.01,29.89,29.81,15,6,0,39,28,41,0.00,6,Snow,49
2013-1-22,0,-10,-20,-15,-24,-33,84,51,32,30.22,30.16,30.02,15,14,12,14,8,,0.00,3,Snow,346
2013-1-23,-22,-26,-31,-31,-37,-42,57,49,31,30.21,30.18,30.16,15,15,12,10,8,,0.00,1,Snow,304
2013-1-24,-23,-32,-34,-43,-44,-45,56,50,31,30.17,30.13,30.04,15,15,15,9,7,,0.00,1,Snow,333
2013-1-25,-22,-28,-35,-35,-39,-45,57,52,33,30.03,29.95,29.87,15,15,15,9,7,,0.00,6,Snow,314
2013-1-26,-22,-24,-27,-33,-35,-38,57,51,32,29.86,29.86,29.84,15,14,10,13,7,,0.00,5,Snow,317
2013-1-27,-29,-30,-31,-40,-42,-44,56,52,32,29.86,29.84,29.82,15,15,12,13,10,,0.00,2,Snow,280
2013-1-28,-31,-34,-36,-42,-44,-45,61,51,22,29.88,29.87,29.86,15,12,4,8,5,,0.00,3,Snow,285
2013-1-29,-32,-36,-40,-44,-47,-49,61,54,34,29.92,29.90,29.88,15,15,10,15,6,,0.00,1,Snow,336
2013-1-30,-25,-32,-40,-38,-41,-45,57,51,34,29.90,29.86,29.82,15,14,7,15,11,,0.00,4,Snow,328
2013-1-31,-25,-31,-35,-38,-44,-46,56,51,31,29.82,29.80,29.79,15,14,10,18,10,,0.00,3,Snow,10